sensor_id;sensor_type;location;lat;lon;timestamp;pressure;altitude;pressure_sealevel;temperature;humidity
5679;BME280;2862;52.560;13.566;2023-05-22T00:07:31;100961.41;;;19.32;50.81
5679;BME280;2862;52.560;13.566;2023-05-22T00:17:35;100956.56;;;19.28;50.46
5679;BME280;2862;52.560;13.566;2023-05-22T00:27:38;100945.22;;;19.24;50.36
5679;BME280;2862;52.560;13.566;2023-05-22T00:37:43;100955.31;;;19.07;50.32
5679;BME280;2862;52.560;13.566;2023-05-22T00:47:47;100941.69;;;18.84;50.70
5679;BME280;2862;52.560;13.566;2023-05-22T00:57:52;100933.66;;;18.60;51.55
5679;BME280;2862;52.560;13.566;2023-05-22T01:07:56;100930.47;;;18.40;51.90
5679;BME280;2862;52.560;13.566;2023-05-22T01:18:12;100929.19;;;18.20;52.15
5679;BME280;2862;52.560;13.566;2023-05-22T01:28:35;100921.44;;;18.09;52.19
5679;BME280;2862;52.560;13.566;2023-05-22T01:38:45;100924.50;;;17.89;52.76
5679;BME280;2862;52.560;13.566;2023-05-22T01:48:48;100924.47;;;17.57;53.59
5679;BME280;2862;52.560;13.566;2023-05-22T01:58:57;100928.19;;;17.39;53.79
5679;BME280;2862;52.560;13.566;2023-05-22T02:09:03;100924.97;;;17.28;54.32
5679;BME280;2862;52.560;13.566;2023-05-22T02:19:27;100922.88;;;17.05;54.98
5679;BME280;2862;52.560;13.566;2023-05-22T02:29:31;100919.38;;;16.70;56.35
5679;BME280;2862;52.560;13.566;2023-05-22T02:39:36;100917.69;;;16.35;57.73
5679;BME280;2862;52.560;13.566;2023-05-22T02:49:40;100905.78;;;16.20;58.01
5679;BME280;2862;52.560;13.566;2023-05-22T02:59:45;100911.13;;;16.12;58.65
5679;BME280;2862;52.560;13.566;2023-05-22T03:09:48;100911.59;;;16.07;58.46
5679;BME280;2862;52.560;13.566;2023-05-22T03:19:53;100889.38;;;16.13;58.78
5679;BME280;2862;52.560;13.566;2023-05-22T03:29:57;100885.56;;;16.24;58.24
5679;BME280;2862;52.560;13.566;2023-05-22T03:40:02;100892.31;;;16.28;58.20
5679;BME280;2862;52.560;13.566;2023-05-22T03:50:08;100893.59;;;16.42;57.98
5679;BME280;2862;52.560;13.566;2023-05-22T04:00:14;100889.66;;;17.21;55.72
5679;BME280;2862;52.560;13.566;2023-05-22T04:10:20;100873.78;;;18.47;51.74
5679;BME280;2862;52.560;13.566;2023-05-22T04:20:26;100874.91;;;20.36;46.44
5679;BME280;2862;52.560;13.566;2023-05-22T04:30:30;100883.75;;;20.74;45.38
5679;BME280;2862;52.560;13.566;2023-05-22T04:40:36;100874.34;;;21.98;42.53
5679;BME280;2862;52.560;13.566;2023-05-22T04:50:41;100890.84;;;21.05;44.89
5679;BME280;2862;52.560;13.566;2023-05-22T05:00:49;100885.09;;;22.41;42.00
5679;BME280;2862;52.560;13.566;2023-05-22T05:10:53;100875.59;;;22.65;41.58
5679;BME280;2862;52.560;13.566;2023-05-22T05:20:58;100881.13;;;21.81;44.22
5679;BME280;2862;52.560;13.566;2023-05-22T05:31:02;100874.97;;;22.70;42.73
5679;BME280;2862;52.560;13.566;2023-05-22T05:41:28;100879.34;;;23.05;41.91
5679;BME280;2862;52.560;13.566;2023-05-22T05:51:37;100891.19;;;24.77;38.15
5679;BME280;2862;52.560;13.566;2023-05-22T06:01:44;100885.88;;;26.33;34.86
5679;BME280;2862;52.560;13.566;2023-05-22T06:11:54;100894.34;;;25.88;35.50
5679;BME280;2862;52.560;13.566;2023-05-22T06:22:00;100884.31;;;26.01;35.66
5679;BME280;2862;52.560;13.566;2023-05-22T06:32:05;100871.25;;;26.39;35.35
5679;BME280;2862;52.560;13.566;2023-05-22T06:42:11;100883.84;;;25.54;37.17
5679;BME280;2862;52.560;13.566;2023-05-22T06:52:33;100879.50;;;26.39;36.61
5679;BME280;2862;52.560;13.566;2023-05-22T07:02:41;100878.88;;;26.74;35.55
5679;BME280;2862;52.560;13.566;2023-05-22T07:12:46;100866.28;;;25.93;37.55
5679;BME280;2862;52.560;13.566;2023-05-22T07:22:51;100870.38;;;26.94;35.86
5679;BME280;2862;52.560;13.566;2023-05-22T07:32:55;100865.56;;;27.38;35.14
5679;BME280;2862;52.560;13.566;2023-05-22T07:43:00;100869.34;;;26.40;37.49
5679;BME280;2862;52.560;13.566;2023-05-22T07:53:05;100863.06;;;26.58;37.31
5679;BME280;2862;52.560;13.566;2023-05-22T08:03:13;100857.16;;;25.74;39.19
5679;BME280;2862;52.560;13.566;2023-05-22T08:13:17;100851.00;;;24.84;40.95
5679;BME280;2862;52.560;13.566;2023-05-22T08:23:21;100854.63;;;24.71;40.82
5679;BME280;2862;52.560;13.566;2023-05-22T08:33:24;100857.91;;;24.86;40.73
5679;BME280;2862;52.560;13.566;2023-05-22T08:43:29;100858.31;;;24.45;41.35
5679;BME280;2862;52.560;13.566;2023-05-22T08:53:33;100841.47;;;24.93;40.83
5679;BME280;2862;52.560;13.566;2023-05-22T09:03:38;100831.59;;;25.55;38.16
5679;BME280;2862;52.560;13.566;2023-05-22T09:13:42;100826.09;;;24.60;39.06
5679;BME280;2862;52.560;13.566;2023-05-22T09:23:48;100824.47;;;24.33;39.62
5679;BME280;2862;52.560;13.566;2023-05-22T09:33:52;100810.63;;;25.67;36.85
5679;BME280;2862;52.560;13.566;2023-05-22T09:43:57;100805.59;;;25.39;37.08
5679;BME280;2862;52.560;13.566;2023-05-22T09:54:02;100814.81;;;25.20;38.00
5679;BME280;2862;52.560;13.566;2023-05-22T10:04:11;100795.31;;;24.72;38.94
5679;BME280;2862;52.560;13.566;2023-05-22T10:14:15;100789.81;;;25.41;37.29
5679;BME280;2862;52.560;13.566;2023-05-22T10:24:20;100781.91;;;24.95;36.84
5679;BME280;2862;52.560;13.566;2023-05-22T10:34:29;100775.44;;;24.89;37.84
5679;BME280;2862;52.560;13.566;2023-05-22T10:44:37;100762.66;;;24.83;36.70
5679;BME280;2862;52.560;13.566;2023-05-22T10:54:41;100758.78;;;24.91;36.43
5679;BME280;2862;52.560;13.566;2023-05-22T11:04:47;100747.97;;;25.03;35.88
5679;BME280;2862;52.560;13.566;2023-05-22T11:14:52;100741.41;;;25.10;34.14
5679;BME280;2862;52.560;13.566;2023-05-22T11:24:56;100738.53;;;25.30;33.69
5679;BME280;2862;52.560;13.566;2023-05-22T11:34:59;100726.84;;;25.41;33.19
5679;BME280;2862;52.560;13.566;2023-05-22T11:45:08;100726.06;;;25.09;33.30
5679;BME280;2862;52.560;13.566;2023-05-22T11:55:12;100710.09;;;25.31;32.80
5679;BME280;2862;52.560;13.566;2023-05-22T12:05:19;100701.44;;;25.09;31.83
5679;BME280;2862;52.560;13.566;2023-05-22T12:15:23;100697.44;;;24.80;31.69
5679;BME280;2862;52.560;13.566;2023-05-22T12:25:34;100689.22;;;24.80;31.41
5679;BME280;2862;52.560;13.566;2023-05-22T12:35:37;100673.25;;;25.02;30.27
5679;BME280;2862;52.560;13.566;2023-05-22T12:45:42;100686.31;;;24.75;30.47
5679;BME280;2862;52.560;13.566;2023-05-22T12:55:44;100676.72;;;24.66;29.99
5679;BME280;2862;52.560;13.566;2023-05-22T13:05:49;100668.28;;;25.42;27.67
5679;BME280;2862;52.560;13.566;2023-05-22T13:15:51;100664.72;;;25.60;28.03
5679;BME280;2862;52.560;13.566;2023-05-22T13:25:55;100654.19;;;25.57;27.54
5679;BME280;2862;52.560;13.566;2023-05-22T13:35:58;100660.75;;;25.75;27.32
5679;BME280;2862;52.560;13.566;2023-05-22T13:46:02;100639.38;;;25.65;27.96
5679;BME280;2862;52.560;13.566;2023-05-22T13:56:05;100650.63;;;25.57;27.09
5679;BME280;2862;52.560;13.566;2023-05-22T14:06:10;100639.28;;;25.72;26.28
5679;BME280;2862;52.560;13.566;2023-05-22T14:16:13;100616.50;;;25.78;27.09
5679;BME280;2862;52.560;13.566;2023-05-22T14:26:17;100616.03;;;25.81;26.20
5679;BME280;2862;52.560;13.566;2023-05-22T14:36:22;100613.06;;;25.64;26.13
5679;BME280;2862;52.560;13.566;2023-05-22T14:46:26;100605.28;;;25.61;25.82
5679;BME280;2862;52.560;13.566;2023-05-22T14:56:29;100605.09;;;25.81;26.20
5679;BME280;2862;52.560;13.566;2023-05-22T15:06:34;100589.75;;;25.73;24.88
5679;BME280;2862;52.560;13.566;2023-05-22T15:16:36;100586.13;;;25.61;25.68
5679;BME280;2862;52.560;13.566;2023-05-22T15:26:40;100565.59;;;25.52;25.01
5679;BME280;2862;52.560;13.566;2023-05-22T15:36:44;100546.94;;;25.12;24.93
5679;BME280;2862;52.560;13.566;2023-05-22T15:46:48;100539.16;;;25.09;25.07
5679;BME280;2862;52.560;13.566;2023-05-22T15:56:51;100517.38;;;25.51;25.72
5679;BME280;2862;52.560;13.566;2023-05-22T16:06:55;100511.19;;;25.25;25.96
5679;BME280;2862;52.560;13.566;2023-05-22T16:16:58;100506.59;;;25.37;27.12
5679;BME280;2862;52.560;13.566;2023-05-22T16:27:03;100500.63;;;25.10;26.91
5679;BME280;2862;52.560;13.566;2023-05-22T16:37:06;100491.94;;;24.95;28.00
5679;BME280;2862;52.560;13.566;2023-05-22T16:47:10;100496.94;;;24.80;28.48
5679;BME280;2862;52.560;13.566;2023-05-22T16:57:13;100502.66;;;24.53;28.73
5679;BME280;2862;52.560;13.566;2023-05-22T17:07:17;100499.09;;;24.53;29.19
5679;BME280;2862;52.560;13.566;2023-05-22T17:17:20;100503.41;;;24.42;29.92
5679;BME280;2862;52.560;13.566;2023-05-22T17:27:25;100498.69;;;24.74;29.36
5679;BME280;2862;52.560;13.566;2023-05-22T17:37:35;100498.09;;;24.22;30.52
5679;BME280;2862;52.560;13.566;2023-05-22T17:47:40;100497.81;;;24.05;30.78
5679;BME280;2862;52.560;13.566;2023-05-22T17:57:43;100482.28;;;23.68;31.46
5679;BME280;2862;52.560;13.566;2023-05-22T18:07:47;100491.91;;;23.32;31.92
5679;BME280;2862;52.560;13.566;2023-05-22T18:17:50;100474.38;;;23.08;32.68
5679;BME280;2862;52.560;13.566;2023-05-22T18:27:55;100476.34;;;22.74;33.23
5679;BME280;2862;52.560;13.566;2023-05-22T18:37:58;100464.47;;;22.42;33.45
5679;BME280;2862;52.560;13.566;2023-05-22T18:48:02;100467.22;;;22.16;33.90
5679;BME280;2862;52.560;13.566;2023-05-22T18:58:05;100475.53;;;21.94;34.30
5679;BME280;2862;52.560;13.566;2023-05-22T19:08:09;100479.91;;;21.69;34.67
5679;BME280;2862;52.560;13.566;2023-05-22T19:18:11;100479.84;;;21.49;34.84
5679;BME280;2862;52.560;13.566;2023-05-22T19:28:16;100489.03;;;21.35;34.99
5679;BME280;2862;52.560;13.566;2023-05-22T19:38:19;100495.19;;;21.15;35.29
5679;BME280;2862;52.560;13.566;2023-05-22T19:48:23;100499.91;;;20.93;35.43
5679;BME280;2862;52.560;13.566;2023-05-22T19:58:27;100493.53;;;20.80;36.07
5679;BME280;2862;52.560;13.566;2023-05-22T20:08:31;100502.50;;;20.74;36.35
5679;BME280;2862;52.560;13.566;2023-05-22T20:18:37;100506.16;;;20.59;36.89
5679;BME280;2862;52.560;13.566;2023-05-22T20:28:42;100499.50;;;20.40;37.67
5679;BME280;2862;52.560;13.566;2023-05-22T20:38:45;100503.06;;;20.41;37.62
5679;BME280;2862;52.560;13.566;2023-05-22T20:48:51;100504.59;;;20.22;38.11
5679;BME280;2862;52.560;13.566;2023-05-22T20:58:54;100495.03;;;20.05;38.92
5679;BME280;2862;52.560;13.566;2023-05-22T21:08:58;100502.22;;;19.91;39.41
5679;BME280;2862;52.560;13.566;2023-05-22T21:19:02;100497.41;;;19.72;39.75
5679;BME280;2862;52.560;13.566;2023-05-22T21:29:06;100494.06;;;19.70;40.17
5679;BME280;2862;52.560;13.566;2023-05-22T21:39:09;100496.41;;;19.58;40.79
5679;BME280;2862;52.560;13.566;2023-05-22T21:49:14;100497.34;;;19.65;40.85
5679;BME280;2862;52.560;13.566;2023-05-22T21:59:17;100501.78;;;19.51;41.28
5679;BME280;2862;52.560;13.566;2023-05-22T22:09:21;100487.47;;;19.43;41.36
5679;BME280;2862;52.560;13.566;2023-05-22T22:19:24;100483.44;;;19.17;42.22
5679;BME280;2862;52.560;13.566;2023-05-22T22:29:29;100476.34;;;19.16;42.21
5679;BME280;2862;52.560;13.566;2023-05-22T22:39:32;100453.41;;;19.19;42.70
5679;BME280;2862;52.560;13.566;2023-05-22T22:49:37;100447.22;;;19.25;42.21
5679;BME280;2862;52.560;13.566;2023-05-22T22:59:40;100448.22;;;19.02;42.96
5679;BME280;2862;52.560;13.566;2023-05-22T23:09:45;100432.28;;;18.93;43.04
5679;BME280;2862;52.560;13.566;2023-05-22T23:19:47;100430.59;;;18.77;43.96
5679;BME280;2862;52.560;13.566;2023-05-22T23:29:52;100416.94;;;18.26;45.24
5679;BME280;2862;52.560;13.566;2023-05-22T23:39:55;100410.19;;;18.07;45.80
5679;BME280;2862;52.560;13.566;2023-05-22T23:50:00;100388.59;;;17.84;45.95
